sensor_id;sensor_type;location;lat;lon;timestamp;temperature;humidity
12769;DHT22;6448;48.916;8.990;2023-08-17T00:00:21;26.50;60.00
12769;DHT22;6448;48.916;8.990;2023-08-17T00:01:23;26.50;60.80
12769;DHT22;6448;48.916;8.990;2023-08-17T00:02:25;26.50;59.90
12769;DHT22;6448;48.916;8.990;2023-08-17T00:03:26;26.50;59.80
12769;DHT22;6448;48.916;8.990;2023-08-17T00:04:29;26.50;59.80
12769;DHT22;6448;48.916;8.990;2023-08-17T00:05:30;26.50;59.80
12769;DHT22;6448;48.916;8.990;2023-08-17T00:06:33;26.50;59.80
12769;DHT22;6448;48.916;8.990;2023-08-17T00:07:34;26.50;59.70
12769;DHT22;6448;48.916;8.990;2023-08-17T00:08:36;26.50;59.70
12769;DHT22;6448;48.916;8.990;2023-08-17T00:09:36;26.50;59.70
12769;DHT22;6448;48.916;8.990;2023-08-17T00:10:38;26.50;59.70
12769;DHT22;6448;48.916;8.990;2023-08-17T00:11:39;26.50;59.70
12769;DHT22;6448;48.916;8.990;2023-08-17T00:12:41;26.50;59.70
12769;DHT22;6448;48.916;8.990;2023-08-17T00:13:42;26.50;59.70
12769;DHT22;6448;48.916;8.990;2023-08-17T00:14:43;26.60;59.70
12769;DHT22;6448;48.916;8.990;2023-08-17T00:15:44;26.60;59.70
12769;DHT22;6448;48.916;8.990;2023-08-17T00:16:46;26.60;59.60
12769;DHT22;6448;48.916;8.990;2023-08-17T00:17:47;26.60;59.60
12769;DHT22;6448;48.916;8.990;2023-08-17T00:18:48;26.60;59.50
12769;DHT22;6448;48.916;8.990;2023-08-17T00:19:50;26.60;59.50
12769;DHT22;6448;48.916;8.990;2023-08-17T00:20:52;26.60;59.40
12769;DHT22;6448;48.916;8.990;2023-08-17T00:21:53;26.60;59.40
12769;DHT22;6448;48.916;8.990;2023-08-17T00:22:55;26.60;59.40
12769;DHT22;6448;48.916;8.990;2023-08-17T00:23:56;26.60;59.40
12769;DHT22;6448;48.916;8.990;2023-08-17T00:24:57;26.60;59.30
12769;DHT22;6448;48.916;8.990;2023-08-17T00:25:59;26.60;59.30
12769;DHT22;6448;48.916;8.990;2023-08-17T00:26:59;26.60;59.20
12769;DHT22;6448;48.916;8.990;2023-08-17T00:28:01;26.60;59.20
12769;DHT22;6448;48.916;8.990;2023-08-17T00:29:02;26.60;59.10
12769;DHT22;6448;48.916;8.990;2023-08-17T00:30:05;26.60;59.00
12769;DHT22;6448;48.916;8.990;2023-08-17T00:31:06;26.60;59.00
12769;DHT22;6448;48.916;8.990;2023-08-17T00:32:08;26.70;58.90
12769;DHT22;6448;48.916;8.990;2023-08-17T00:33:10;26.70;58.90
12769;DHT22;6448;48.916;8.990;2023-08-17T00:34:12;26.60;58.90
12769;DHT22;6448;48.916;8.990;2023-08-17T00:35:14;26.70;58.90
12769;DHT22;6448;48.916;8.990;2023-08-17T00:36:16;26.70;58.90
12769;DHT22;6448;48.916;8.990;2023-08-17T00:37:16;26.70;58.90
12769;DHT22;6448;48.916;8.990;2023-08-17T00:38:18;26.70;58.90
12769;DHT22;6448;48.916;8.990;2023-08-17T00:39:19;26.70;58.90
12769;DHT22;6448;48.916;8.990;2023-08-17T00:40:21;26.60;58.80
12769;DHT22;6448;48.916;8.990;2023-08-17T00:41:22;26.70;58.90
12769;DHT22;6448;48.916;8.990;2023-08-17T00:42:24;26.70;58.80
12769;DHT22;6448;48.916;8.990;2023-08-17T00:43:24;26.70;58.80
12769;DHT22;6448;48.916;8.990;2023-08-17T00:44:26;26.70;58.80
12769;DHT22;6448;48.916;8.990;2023-08-17T00:45:27;26.70;58.70
12769;DHT22;6448;48.916;8.990;2023-08-17T00:46:29;26.70;58.70
12769;DHT22;6448;48.916;8.990;2023-08-17T00:47:31;26.70;58.70
12769;DHT22;6448;48.916;8.990;2023-08-17T00:48:33;26.60;58.60
12769;DHT22;6448;48.916;8.990;2023-08-17T00:49:34;26.70;58.60
12769;DHT22;6448;48.916;8.990;2023-08-17T00:50:37;26.70;58.50
12769;DHT22;6448;48.916;8.990;2023-08-17T00:51:39;26.70;58.50
12769;DHT22;6448;48.916;8.990;2023-08-17T00:52:40;26.70;58.50
12769;DHT22;6448;48.916;8.990;2023-08-17T00:53:43;26.70;58.50
12769;DHT22;6448;48.916;8.990;2023-08-17T00:54:43;26.70;58.50
12769;DHT22;6448;48.916;8.990;2023-08-17T00:55:45;26.70;58.50
12769;DHT22;6448;48.916;8.990;2023-08-17T00:56:46;26.70;58.50
12769;DHT22;6448;48.916;8.990;2023-08-17T00:57:48;26.70;58.40
12769;DHT22;6448;48.916;8.990;2023-08-17T00:58:49;26.70;58.40
12769;DHT22;6448;48.916;8.990;2023-08-17T00:59:51;26.70;58.40
12769;DHT22;6448;48.916;8.990;2023-08-17T01:00:52;26.70;58.40
12769;DHT22;6448;48.916;8.990;2023-08-17T01:01:53;26.70;58.40
12769;DHT22;6448;48.916;8.990;2023-08-17T01:02:55;26.70;58.40
12769;DHT22;6448;48.916;8.990;2023-08-17T01:03:56;26.60;58.30
12769;DHT22;6448;48.916;8.990;2023-08-17T01:04:58;26.70;58.50
12769;DHT22;6448;48.916;8.990;2023-08-17T01:06:03;26.70;58.40
12769;DHT22;6448;48.916;8.990;2023-08-17T01:07:04;26.70;58.40
12769;DHT22;6448;48.916;8.990;2023-08-17T01:08:05;26.60;58.30
12769;DHT22;6448;48.916;8.990;2023-08-17T01:09:09;26.60;58.30
12769;DHT22;6448;48.916;8.990;2023-08-17T01:10:10;26.60;58.30
12769;DHT22;6448;48.916;8.990;2023-08-17T01:11:18;26.60;58.30
12769;DHT22;6448;48.916;8.990;2023-08-17T01:12:27;26.70;58.40
12769;DHT22;6448;48.916;8.990;2023-08-17T01:13:36;26.60;58.30
12769;DHT22;6448;48.916;8.990;2023-08-17T01:14:46;26.60;58.30
12769;DHT22;6448;48.916;8.990;2023-08-17T01:15:56;26.60;58.30
12769;DHT22;6448;48.916;8.990;2023-08-17T01:17:02;26.60;58.40
12769;DHT22;6448;48.916;8.990;2023-08-17T01:18:21;26.60;58.40
12769;DHT22;6448;48.916;8.990;2023-08-17T01:19:25;26.60;58.40
12769;DHT22;6448;48.916;8.990;2023-08-17T01:20:29;26.60;58.50
12769;DHT22;6448;48.916;8.990;2023-08-17T01:21:37;26.60;58.50
12769;DHT22;6448;48.916;8.990;2023-08-17T01:22:41;26.60;58.60
12769;DHT22;6448;48.916;8.990;2023-08-17T01:23:45;26.60;58.60
12769;DHT22;6448;48.916;8.990;2023-08-17T01:24:47;26.60;58.60
12769;DHT22;6448;48.916;8.990;2023-08-17T01:25:49;26.50;58.60
12769;DHT22;6448;48.916;8.990;2023-08-17T01:26:51;26.60;58.70
12769;DHT22;6448;48.916;8.990;2023-08-17T01:27:52;26.50;58.60
12769;DHT22;6448;48.916;8.990;2023-08-17T01:28:54;26.60;58.70
12769;DHT22;6448;48.916;8.990;2023-08-17T01:29:55;26.50;58.70
12769;DHT22;6448;48.916;8.990;2023-08-17T01:30:59;26.50;58.70
12769;DHT22;6448;48.916;8.990;2023-08-17T01:32:07;26.50;58.70
12769;DHT22;6448;48.916;8.990;2023-08-17T01:33:14;26.50;58.70
12769;DHT22;6448;48.916;8.990;2023-08-17T01:34:19;26.50;58.70
12769;DHT22;6448;48.916;8.990;2023-08-17T01:35:30;26.50;58.70
12769;DHT22;6448;48.916;8.990;2023-08-17T01:36:35;26.50;58.70
12769;DHT22;6448;48.916;8.990;2023-08-17T01:37:43;26.60;58.70
12769;DHT22;6448;48.916;8.990;2023-08-17T01:38:46;26.50;58.70
12769;DHT22;6448;48.916;8.990;2023-08-17T01:39:50;26.60;58.70
12769;DHT22;6448;48.916;8.990;2023-08-17T01:40:53;26.50;58.70
12769;DHT22;6448;48.916;8.990;2023-08-17T01:41:56;26.50;58.70
12769;DHT22;6448;48.916;8.990;2023-08-17T01:42:59;26.50;58.70
12769;DHT22;6448;48.916;8.990;2023-08-17T01:44:00;26.50;58.70
12769;DHT22;6448;48.916;8.990;2023-08-17T01:45:03;26.50;58.70
12769;DHT22;6448;48.916;8.990;2023-08-17T01:46:05;26.50;58.70
12769;DHT22;6448;48.916;8.990;2023-08-17T01:47:06;26.50;58.70
12769;DHT22;6448;48.916;8.990;2023-08-17T01:48:07;26.50;58.70
12769;DHT22;6448;48.916;8.990;2023-08-17T01:49:08;26.50;58.70
12769;DHT22;6448;48.916;8.990;2023-08-17T01:50:10;26.50;58.70
12769;DHT22;6448;48.916;8.990;2023-08-17T01:51:16;26.50;58.70
12769;DHT22;6448;48.916;8.990;2023-08-17T01:52:17;26.50;58.70
12769;DHT22;6448;48.916;8.990;2023-08-17T01:53:18;26.50;58.70
12769;DHT22;6448;48.916;8.990;2023-08-17T01:54:21;26.50;58.80
12769;DHT22;6448;48.916;8.990;2023-08-17T01:55:22;26.50;58.80
12769;DHT22;6448;48.916;8.990;2023-08-17T01:56:24;26.50;58.80
12769;DHT22;6448;48.916;8.990;2023-08-17T01:57:25;26.50;58.80
12769;DHT22;6448;48.916;8.990;2023-08-17T01:58:27;26.50;58.80
12769;DHT22;6448;48.916;8.990;2023-08-17T01:59:28;26.50;58.90
12769;DHT22;6448;48.916;8.990;2023-08-17T02:00:29;26.50;58.90
12769;DHT22;6448;48.916;8.990;2023-08-17T02:01:30;26.50;59.00
12769;DHT22;6448;48.916;8.990;2023-08-17T02:02:32;26.50;59.00
12769;DHT22;6448;48.916;8.990;2023-08-17T02:03:33;26.50;59.00
12769;DHT22;6448;48.916;8.990;2023-08-17T02:04:34;26.50;58.90
12769;DHT22;6448;48.916;8.990;2023-08-17T02:05:35;26.50;58.90
12769;DHT22;6448;48.916;8.990;2023-08-17T02:06:37;26.40;58.90
12769;DHT22;6448;48.916;8.990;2023-08-17T02:07:38;26.40;58.90
12769;DHT22;6448;48.916;8.990;2023-08-17T02:08:40;26.50;59.00
12769;DHT22;6448;48.916;8.990;2023-08-17T02:09:43;26.50;59.00
12769;DHT22;6448;48.916;8.990;2023-08-17T02:10:44;26.40;58.90
12769;DHT22;6448;48.916;8.990;2023-08-17T02:11:45;26.50;59.00
12769;DHT22;6448;48.916;8.990;2023-08-17T02:12:47;26.50;59.00
12769;DHT22;6448;48.916;8.990;2023-08-17T02:13:48;26.50;59.00
12769;DHT22;6448;48.916;8.990;2023-08-17T02:14:50;26.50;59.00
12769;DHT22;6448;48.916;8.990;2023-08-17T02:15:50;26.50;59.00
12769;DHT22;6448;48.916;8.990;2023-08-17T02:16:52;26.50;59.00
12769;DHT22;6448;48.916;8.990;2023-08-17T02:17:53;26.50;58.90
12769;DHT22;6448;48.916;8.990;2023-08-17T02:18:55;26.50;58.90
12769;DHT22;6448;48.916;8.990;2023-08-17T02:19:55;26.50;59.10
12769;DHT22;6448;48.916;8.990;2023-08-17T02:20:57;26.50;59.00
12769;DHT22;6448;48.916;8.990;2023-08-17T02:21:58;26.50;58.90
12769;DHT22;6448;48.916;8.990;2023-08-17T02:23:00;26.50;59.00
12769;DHT22;6448;48.916;8.990;2023-08-17T02:24:01;26.40;58.90
12769;DHT22;6448;48.916;8.990;2023-08-17T02:25:05;26.50;58.90
12769;DHT22;6448;48.916;8.990;2023-08-17T02:26:06;26.50;58.90
12769;DHT22;6448;48.916;8.990;2023-08-17T02:27:09;26.50;58.90
12769;DHT22;6448;48.916;8.990;2023-08-17T02:28:10;26.50;58.90
12769;DHT22;6448;48.916;8.990;2023-08-17T02:29:11;26.50;58.90
12769;DHT22;6448;48.916;8.990;2023-08-17T02:30:13;26.40;58.80
12769;DHT22;6448;48.916;8.990;2023-08-17T02:31:15;26.40;58.80
12769;DHT22;6448;48.916;8.990;2023-08-17T02:32:15;26.40;58.90
12769;DHT22;6448;48.916;8.990;2023-08-17T02:33:17;26.40;58.90
12769;DHT22;6448;48.916;8.990;2023-08-17T02:34:18;26.40;58.90
12769;DHT22;6448;48.916;8.990;2023-08-17T02:35:20;26.40;58.90
12769;DHT22;6448;48.916;8.990;2023-08-17T02:36:21;26.40;58.90
12769;DHT22;6448;48.916;8.990;2023-08-17T02:37:22;26.40;58.90
12769;DHT22;6448;48.916;8.990;2023-08-17T02:38:23;26.40;58.90
12769;DHT22;6448;48.916;8.990;2023-08-17T02:39:26;26.40;58.90
12769;DHT22;6448;48.916;8.990;2023-08-17T02:40:28;26.40;58.90
12769;DHT22;6448;48.916;8.990;2023-08-17T02:41:29;26.40;58.90
12769;DHT22;6448;48.916;8.990;2023-08-17T02:42:30;26.40;59.00
12769;DHT22;6448;48.916;8.990;2023-08-17T02:43:32;26.40;59.00
12769;DHT22;6448;48.916;8.990;2023-08-17T02:44:33;26.40;59.10
12769;DHT22;6448;48.916;8.990;2023-08-17T02:45:35;26.40;59.10
12769;DHT22;6448;48.916;8.990;2023-08-17T02:46:35;26.40;59.10
12769;DHT22;6448;48.916;8.990;2023-08-17T02:47:37;26.40;59.10
12769;DHT22;6448;48.916;8.990;2023-08-17T02:48:38;26.40;59.10
12769;DHT22;6448;48.916;8.990;2023-08-17T02:49:39;26.40;59.10
12769;DHT22;6448;48.916;8.990;2023-08-17T02:50:41;26.40;59.10
12769;DHT22;6448;48.916;8.990;2023-08-17T02:51:41;26.40;59.20
12769;DHT22;6448;48.916;8.990;2023-08-17T02:52:43;26.40;59.20
12769;DHT22;6448;48.916;8.990;2023-08-17T02:53:44;26.40;59.20
12769;DHT22;6448;48.916;8.990;2023-08-17T02:54:46;26.40;59.20
12769;DHT22;6448;48.916;8.990;2023-08-17T02:55:48;26.40;59.30
12769;DHT22;6448;48.916;8.990;2023-08-17T02:56:49;26.40;59.20
12769;DHT22;6448;48.916;8.990;2023-08-17T02:57:51;26.40;59.20
12769;DHT22;6448;48.916;8.990;2023-08-17T02:58:53;26.40;59.20
12769;DHT22;6448;48.916;8.990;2023-08-17T02:59:54;26.40;59.20
12769;DHT22;6448;48.916;8.990;2023-08-17T03:00:55;26.40;59.20
12769;DHT22;6448;48.916;8.990;2023-08-17T03:01:56;26.40;59.20
12769;DHT22;6448;48.916;8.990;2023-08-17T03:02:58;26.40;59.20
12769;DHT22;6448;48.916;8.990;2023-08-17T03:04:00;26.40;59.10
12769;DHT22;6448;48.916;8.990;2023-08-17T03:05:03;26.50;59.20
12769;DHT22;6448;48.916;8.990;2023-08-17T03:06:05;26.40;59.10
12769;DHT22;6448;48.916;8.990;2023-08-17T03:07:07;26.40;59.10
12769;DHT22;6448;48.916;8.990;2023-08-17T03:08:08;26.40;59.20
12769;DHT22;6448;48.916;8.990;2023-08-17T03:09:10;26.40;59.10
12769;DHT22;6448;48.916;8.990;2023-08-17T03:10:11;26.40;59.10
12769;DHT22;6448;48.916;8.990;2023-08-17T03:11:14;26.40;59.20
12769;DHT22;6448;48.916;8.990;2023-08-17T03:12:16;26.40;59.20
12769;DHT22;6448;48.916;8.990;2023-08-17T03:13:17;26.40;59.20
12769;DHT22;6448;48.916;8.990;2023-08-17T03:14:19;26.40;59.20
12769;DHT22;6448;48.916;8.990;2023-08-17T03:15:20;26.40;59.20
12769;DHT22;6448;48.916;8.990;2023-08-17T03:16:22;26.40;59.20
12769;DHT22;6448;48.916;8.990;2023-08-17T03:17:23;26.40;59.30
12769;DHT22;6448;48.916;8.990;2023-08-17T03:18:25;26.40;59.30
12769;DHT22;6448;48.916;8.990;2023-08-17T03:19:25;26.40;59.30
12769;DHT22;6448;48.916;8.990;2023-08-17T03:20:28;26.40;59.30
12769;DHT22;6448;48.916;8.990;2023-08-17T03:21:28;26.40;59.20
12769;DHT22;6448;48.916;8.990;2023-08-17T03:22:30;26.40;59.30
12769;DHT22;6448;48.916;8.990;2023-08-17T03:23:32;26.40;59.30
12769;DHT22;6448;48.916;8.990;2023-08-17T03:24:32;26.40;59.30
12769;DHT22;6448;48.916;8.990;2023-08-17T03:25:34;26.40;59.30
12769;DHT22;6448;48.916;8.990;2023-08-17T03:26:37;26.40;59.40
12769;DHT22;6448;48.916;8.990;2023-08-17T03:27:41;26.40;59.40
12769;DHT22;6448;48.916;8.990;2023-08-17T03:28:42;26.40;59.40
12769;DHT22;6448;48.916;8.990;2023-08-17T03:29:44;26.40;59.40
12769;DHT22;6448;48.916;8.990;2023-08-17T03:30:45;26.40;59.40
12769;DHT22;6448;48.916;8.990;2023-08-17T03:31:46;26.40;59.40
12769;DHT22;6448;48.916;8.990;2023-08-17T03:32:48;26.40;59.40
12769;DHT22;6448;48.916;8.990;2023-08-17T03:33:50;26.40;59.40
12769;DHT22;6448;48.916;8.990;2023-08-17T03:34:52;26.40;59.40
12769;DHT22;6448;48.916;8.990;2023-08-17T03:35:54;26.40;59.40
12769;DHT22;6448;48.916;8.990;2023-08-17T03:36:55;26.30;59.40
12769;DHT22;6448;48.916;8.990;2023-08-17T03:37:57;26.30;59.40
12769;DHT22;6448;48.916;8.990;2023-08-17T03:38:58;26.30;59.40
12769;DHT22;6448;48.916;8.990;2023-08-17T03:40:00;26.30;59.40
12769;DHT22;6448;48.916;8.990;2023-08-17T03:41:01;26.30;59.40
12769;DHT22;6448;48.916;8.990;2023-08-17T03:42:06;26.30;59.40
12769;DHT22;6448;48.916;8.990;2023-08-17T03:43:07;26.30;59.40
12769;DHT22;6448;48.916;8.990;2023-08-17T03:44:10;26.30;59.40
12769;DHT22;6448;48.916;8.990;2023-08-17T03:45:11;26.30;59.40
12769;DHT22;6448;48.916;8.990;2023-08-17T03:46:11;26.30;59.40
12769;DHT22;6448;48.916;8.990;2023-08-17T03:47:13;26.20;59.40
12769;DHT22;6448;48.916;8.990;2023-08-17T03:48:15;26.40;59.60
12769;DHT22;6448;48.916;8.990;2023-08-17T03:49:16;26.40;59.60
12769;DHT22;6448;48.916;8.990;2023-08-17T03:50:17;26.30;59.50
12769;DHT22;6448;48.916;8.990;2023-08-17T03:51:19;26.40;59.60
12769;DHT22;6448;48.916;8.990;2023-08-17T03:52:20;26.30;59.50
12769;DHT22;6448;48.916;8.990;2023-08-17T03:53:22;26.30;59.50
12769;DHT22;6448;48.916;8.990;2023-08-17T03:54:24;26.30;59.60
12769;DHT22;6448;48.916;8.990;2023-08-17T03:55:25;26.30;59.50
12769;DHT22;6448;48.916;8.990;2023-08-17T03:56:26;26.30;59.70
12769;DHT22;6448;48.916;8.990;2023-08-17T03:57:29;26.30;59.50
12769;DHT22;6448;48.916;8.990;2023-08-17T03:58:30;26.40;59.60
12769;DHT22;6448;48.916;8.990;2023-08-17T03:59:34;26.30;59.70
12769;DHT22;6448;48.916;8.990;2023-08-17T04:00:36;26.30;59.70
12769;DHT22;6448;48.916;8.990;2023-08-17T04:01:40;26.30;59.70
12769;DHT22;6448;48.916;8.990;2023-08-17T04:02:42;26.40;59.70
12769;DHT22;6448;48.916;8.990;2023-08-17T04:03:48;26.30;59.70
12769;DHT22;6448;48.916;8.990;2023-08-17T04:04:49;26.40;59.70
12769;DHT22;6448;48.916;8.990;2023-08-17T04:05:51;26.40;59.80
12769;DHT22;6448;48.916;8.990;2023-08-17T04:06:52;26.40;59.80
12769;DHT22;6448;48.916;8.990;2023-08-17T04:07:53;26.40;59.80
12769;DHT22;6448;48.916;8.990;2023-08-17T04:08:54;26.40;59.80
12769;DHT22;6448;48.916;8.990;2023-08-17T04:09:56;26.40;59.80
12769;DHT22;6448;48.916;8.990;2023-08-17T04:10:57;26.40;59.80
12769;DHT22;6448;48.916;8.990;2023-08-17T04:11:57;26.40;59.80
12769;DHT22;6448;48.916;8.990;2023-08-17T04:13:00;26.40;59.80
12769;DHT22;6448;48.916;8.990;2023-08-17T04:14:01;26.40;59.80
12769;DHT22;6448;48.916;8.990;2023-08-17T04:15:04;26.40;59.80
12769;DHT22;6448;48.916;8.990;2023-08-17T04:16:05;26.40;59.80
12769;DHT22;6448;48.916;8.990;2023-08-17T04:17:07;26.40;59.90
12769;DHT22;6448;48.916;8.990;2023-08-17T04:18:08;26.40;59.90
12769;DHT22;6448;48.916;8.990;2023-08-17T04:19:10;26.40;59.90
12769;DHT22;6448;48.916;8.990;2023-08-17T04:20:11;26.40;59.90
12769;DHT22;6448;48.916;8.990;2023-08-17T04:21:13;26.40;59.90
12769;DHT22;6448;48.916;8.990;2023-08-17T04:22:14;26.40;59.90
12769;DHT22;6448;48.916;8.990;2023-08-17T04:23:16;26.40;59.90
12769;DHT22;6448;48.916;8.990;2023-08-17T04:24:17;26.40;59.90
12769;DHT22;6448;48.916;8.990;2023-08-17T04:25:19;26.40;60.00
12769;DHT22;6448;48.916;8.990;2023-08-17T04:26:20;26.40;59.90
12769;DHT22;6448;48.916;8.990;2023-08-17T04:27:22;26.40;60.40
12769;DHT22;6448;48.916;8.990;2023-08-17T04:28:24;26.40;59.90
12769;DHT22;6448;48.916;8.990;2023-08-17T04:29:27;26.40;59.90
12769;DHT22;6448;48.916;8.990;2023-08-17T04:30:28;26.40;59.90
12769;DHT22;6448;48.916;8.990;2023-08-17T04:31:34;26.40;60.00
12769;DHT22;6448;48.916;8.990;2023-08-17T04:32:37;26.40;60.00
12769;DHT22;6448;48.916;8.990;2023-08-17T04:33:39;26.40;60.10
12769;DHT22;6448;48.916;8.990;2023-08-17T04:34:41;26.40;60.10
12769;DHT22;6448;48.916;8.990;2023-08-17T04:35:46;26.40;60.10
12769;DHT22;6448;48.916;8.990;2023-08-17T04:36:47;26.40;60.10
12769;DHT22;6448;48.916;8.990;2023-08-17T04:37:50;26.40;61.00
12769;DHT22;6448;48.916;8.990;2023-08-17T04:38:50;26.40;60.20
12769;DHT22;6448;48.916;8.990;2023-08-17T04:39:52;26.40;60.20
12769;DHT22;6448;48.916;8.990;2023-08-17T04:40:55;26.40;60.30
12769;DHT22;6448;48.916;8.990;2023-08-17T04:41:57;26.40;60.30
12769;DHT22;6448;48.916;8.990;2023-08-17T04:43:04;26.40;60.20
12769;DHT22;6448;48.916;8.990;2023-08-17T04:44:07;26.40;60.30
12769;DHT22;6448;48.916;8.990;2023-08-17T04:45:08;26.40;60.20
12769;DHT22;6448;48.916;8.990;2023-08-17T04:46:13;26.40;60.20
12769;DHT22;6448;48.916;8.990;2023-08-17T04:47:15;26.40;60.20
12769;DHT22;6448;48.916;8.990;2023-08-17T04:48:17;26.40;60.20
12769;DHT22;6448;48.916;8.990;2023-08-17T04:49:21;26.40;60.20
12769;DHT22;6448;48.916;8.990;2023-08-17T04:50:22;26.40;60.20
12769;DHT22;6448;48.916;8.990;2023-08-17T04:51:23;26.40;60.20
12769;DHT22;6448;48.916;8.990;2023-08-17T04:52:25;26.40;60.10
12769;DHT22;6448;48.916;8.990;2023-08-17T04:53:25;26.40;60.10
12769;DHT22;6448;48.916;8.990;2023-08-17T04:54:27;26.40;60.10
12769;DHT22;6448;48.916;8.990;2023-08-17T04:55:28;26.40;60.20
12769;DHT22;6448;48.916;8.990;2023-08-17T04:56:30;26.40;60.10
12769;DHT22;6448;48.916;8.990;2023-08-17T04:57:31;26.40;60.10
12769;DHT22;6448;48.916;8.990;2023-08-17T04:58:33;26.40;60.10
12769;DHT22;6448;48.916;8.990;2023-08-17T04:59:36;26.40;60.20
12769;DHT22;6448;48.916;8.990;2023-08-17T05:00:38;26.40;60.20
12769;DHT22;6448;48.916;8.990;2023-08-17T05:01:39;26.40;60.20
12769;DHT22;6448;48.916;8.990;2023-08-17T05:02:40;26.40;60.20
12769;DHT22;6448;48.916;8.990;2023-08-17T05:03:42;26.40;60.20
12769;DHT22;6448;48.916;8.990;2023-08-17T05:04:45;26.40;60.30
12769;DHT22;6448;48.916;8.990;2023-08-17T05:05:46;26.40;60.20
12769;DHT22;6448;48.916;8.990;2023-08-17T05:06:48;26.40;60.20
12769;DHT22;6448;48.916;8.990;2023-08-17T05:07:49;26.30;60.10
12769;DHT22;6448;48.916;8.990;2023-08-17T05:08:50;26.40;60.40
12769;DHT22;6448;48.916;8.990;2023-08-17T05:09:52;26.40;60.50
12769;DHT22;6448;48.916;8.990;2023-08-17T05:10:54;26.40;60.60
12769;DHT22;6448;48.916;8.990;2023-08-17T05:11:55;26.40;60.60
12769;DHT22;6448;48.916;8.990;2023-08-17T05:12:56;26.40;60.60
12769;DHT22;6448;48.916;8.990;2023-08-17T05:13:58;26.40;60.60
12769;DHT22;6448;48.916;8.990;2023-08-17T05:15:00;26.40;60.70
12769;DHT22;6448;48.916;8.990;2023-08-17T05:16:02;26.40;60.70
12769;DHT22;6448;48.916;8.990;2023-08-17T05:17:04;26.40;60.80
12769;DHT22;6448;48.916;8.990;2023-08-17T05:18:05;26.40;60.80
12769;DHT22;6448;48.916;8.990;2023-08-17T05:19:07;26.40;60.90
12769;DHT22;6448;48.916;8.990;2023-08-17T05:20:09;26.40;60.80
12769;DHT22;6448;48.916;8.990;2023-08-17T05:21:14;26.40;60.80
12769;DHT22;6448;48.916;8.990;2023-08-17T05:22:15;26.40;60.80
12769;DHT22;6448;48.916;8.990;2023-08-17T05:23:16;26.40;60.80
12769;DHT22;6448;48.916;8.990;2023-08-17T05:24:18;26.40;60.70
12769;DHT22;6448;48.916;8.990;2023-08-17T05:25:21;26.40;60.80
12769;DHT22;6448;48.916;8.990;2023-08-17T05:26:22;26.40;60.70
12769;DHT22;6448;48.916;8.990;2023-08-17T05:27:24;26.40;60.80
12769;DHT22;6448;48.916;8.990;2023-08-17T05:28:25;26.40;60.80
12769;DHT22;6448;48.916;8.990;2023-08-17T05:29:26;26.40;60.90
12769;DHT22;6448;48.916;8.990;2023-08-17T05:30:29;26.40;60.90
12769;DHT22;6448;48.916;8.990;2023-08-17T05:31:31;26.40;60.90
12769;DHT22;6448;48.916;8.990;2023-08-17T05:32:32;26.40;61.00
12769;DHT22;6448;48.916;8.990;2023-08-17T05:33:34;26.40;61.00
12769;DHT22;6448;48.916;8.990;2023-08-17T05:34:35;26.40;61.00
12769;DHT22;6448;48.916;8.990;2023-08-17T05:35:38;26.40;61.00
12769;DHT22;6448;48.916;8.990;2023-08-17T05:36:38;26.40;61.00
12769;DHT22;6448;48.916;8.990;2023-08-17T05:37:41;26.40;61.10
12769;DHT22;6448;48.916;8.990;2023-08-17T05:38:42;26.40;61.20
12769;DHT22;6448;48.916;8.990;2023-08-17T05:39:43;26.40;61.30
12769;DHT22;6448;48.916;8.990;2023-08-17T05:40:44;26.40;61.20
12769;DHT22;6448;48.916;8.990;2023-08-17T05:41:46;26.40;61.10
12769;DHT22;6448;48.916;8.990;2023-08-17T05:42:47;26.40;61.10
12769;DHT22;6448;48.916;8.990;2023-08-17T05:43:49;26.40;61.10
12769;DHT22;6448;48.916;8.990;2023-08-17T05:44:49;26.40;61.20
12769;DHT22;6448;48.916;8.990;2023-08-17T05:45:53;26.40;61.20
12769;DHT22;6448;48.916;8.990;2023-08-17T05:46:54;26.50;61.30
12769;DHT22;6448;48.916;8.990;2023-08-17T05:47:55;26.40;61.20
12769;DHT22;6448;48.916;8.990;2023-08-17T05:48:56;26.40;61.10
12769;DHT22;6448;48.916;8.990;2023-08-17T05:49:59;26.40;61.10
12769;DHT22;6448;48.916;8.990;2023-08-17T05:50:59;26.50;61.30
12769;DHT22;6448;48.916;8.990;2023-08-17T05:52:01;26.50;61.30
12769;DHT22;6448;48.916;8.990;2023-08-17T05:53:02;26.50;61.40
12769;DHT22;6448;48.916;8.990;2023-08-17T05:54:04;26.50;61.50
12769;DHT22;6448;48.916;8.990;2023-08-17T05:55:05;26.50;61.30
12769;DHT22;6448;48.916;8.990;2023-08-17T05:56:07;26.50;61.30
12769;DHT22;6448;48.916;8.990;2023-08-17T05:57:08;26.50;61.20
12769;DHT22;6448;48.916;8.990;2023-08-17T05:58:11;26.40;61.10
12769;DHT22;6448;48.916;8.990;2023-08-17T05:59:12;26.50;61.20
12769;DHT22;6448;48.916;8.990;2023-08-17T06:00:14;26.50;61.30
12769;DHT22;6448;48.916;8.990;2023-08-17T06:01:18;26.50;61.20
12769;DHT22;6448;48.916;8.990;2023-08-17T06:02:20;26.50;61.20
12769;DHT22;6448;48.916;8.990;2023-08-17T06:03:21;26.50;61.90
12769;DHT22;6448;48.916;8.990;2023-08-17T06:04:23;26.50;61.20
12769;DHT22;6448;48.916;8.990;2023-08-17T06:05:24;26.50;61.20
12769;DHT22;6448;48.916;8.990;2023-08-17T06:06:27;26.50;61.20
12769;DHT22;6448;48.916;8.990;2023-08-17T06:07:28;26.50;61.20
12769;DHT22;6448;48.916;8.990;2023-08-17T06:08:30;26.50;61.20
12769;DHT22;6448;48.916;8.990;2023-08-17T06:09:31;26.50;61.10
12769;DHT22;6448;48.916;8.990;2023-08-17T06:10:33;26.50;61.20
12769;DHT22;6448;48.916;8.990;2023-08-17T06:11:33;26.50;61.20
12769;DHT22;6448;48.916;8.990;2023-08-17T06:12:35;26.50;61.30
12769;DHT22;6448;48.916;8.990;2023-08-17T06:13:36;26.50;61.30
12769;DHT22;6448;48.916;8.990;2023-08-17T06:14:38;26.50;61.30
12769;DHT22;6448;48.916;8.990;2023-08-17T06:15:38;26.50;61.40
12769;DHT22;6448;48.916;8.990;2023-08-17T06:16:41;26.50;61.40
12769;DHT22;6448;48.916;8.990;2023-08-17T06:17:42;26.50;61.50
12769;DHT22;6448;48.916;8.990;2023-08-17T06:18:44;26.50;61.50
12769;DHT22;6448;48.916;8.990;2023-08-17T06:19:45;26.50;61.40
12769;DHT22;6448;48.916;8.990;2023-08-17T06:20:46;26.50;61.40
12769;DHT22;6448;48.916;8.990;2023-08-17T06:21:48;26.50;61.40
12769;DHT22;6448;48.916;8.990;2023-08-17T06:22:49;26.50;61.40
12769;DHT22;6448;48.916;8.990;2023-08-17T06:23:51;26.50;61.40
12769;DHT22;6448;48.916;8.990;2023-08-17T06:24:51;26.50;61.40
12769;DHT22;6448;48.916;8.990;2023-08-17T06:25:56;26.50;61.40
12769;DHT22;6448;48.916;8.990;2023-08-17T06:26:58;26.50;61.50
12769;DHT22;6448;48.916;8.990;2023-08-17T06:27:58;26.50;61.60
12769;DHT22;6448;48.916;8.990;2023-08-17T06:29:00;26.60;61.60
12769;DHT22;6448;48.916;8.990;2023-08-17T06:30:01;26.60;61.50
12769;DHT22;6448;48.916;8.990;2023-08-17T06:31:03;26.60;61.50
12769;DHT22;6448;48.916;8.990;2023-08-17T06:32:06;26.60;61.60
12769;DHT22;6448;48.916;8.990;2023-08-17T06:33:07;26.60;61.60
12769;DHT22;6448;48.916;8.990;2023-08-17T06:34:08;26.60;61.70
12769;DHT22;6448;48.916;8.990;2023-08-17T06:35:10;26.60;61.50
12769;DHT22;6448;48.916;8.990;2023-08-17T06:36:11;26.60;61.70
12769;DHT22;6448;48.916;8.990;2023-08-17T06:37:17;26.60;61.80